This is the latest recevied weather packets stored in our database for station/object EW5546. If no packets are shown the sender has not sent any weather packets the latest 10 day(s).
| Time | Temp. | Humidity | Pressure | Rain* | Wind** | Luminosity | Snow |
|---|---|---|---|---|---|---|---|
| 1777237818 | 6.67° C | 9% | 1022.1 hPa | 0 mm | - | - | - |
| 1777237245 | 6.67° C | 9% | 1022.1 hPa | 0 mm | - | - | - |
| 1777234844 | 7.22° C | 9% | 1022.1 hPa | 0 mm | - | - | - |
| 1777233036 | 7.78° C | 9% | 1022.1 hPa | 0 mm | - | - | - |
| 1777232460 | 7.78° C | 9% | 1022.1 hPa | 0 mm | - | - | - |
| 1777230627 | 8.33° C | 8% | 1021.1 hPa | 0 mm | - | - | - |
| 1777228836 | 8.33° C | 8% | 1021.1 hPa | 0 mm | - | - | - |
| 1777228245 | 8.33° C | 8% | 1021.1 hPa | 0 mm | - | - | - |
| 1777227044 | 8.89° C | 8% | 1021.1 hPa | 0 mm | - | - | - |
| 1777221635 | 10° C | 8% | 1019.1 hPa | 0 mm | - | - | - |
| 1777220428 | 10.56° C | 8% | 1019.1 hPa | 0 mm | - | - | - |
| 1777217437 | 11.67° C | 7% | 1018.1 hPa | 0 mm | - | - | - |
| 1777216218 | 11.67° C | 7% | 1018.1 hPa | 0 mm | - | - | - |
| 1777213844 | 13.33° C | 6% | 1018.1 hPa | 0 mm | - | - | - |
| 1777210873 | 13.33° C | 6% | 1017.1 hPa | 0 mm | - | - | - |
| 1777201844 | 10.56° C | 28% | 1016.1 hPa | 0 mm | - | - | - |
| 1777201219 | 10.56° C | 28% | 1016.1 hPa | 0 mm | - | - | - |
| 1777200027 | 10.56° C | 33% | 1016.1 hPa | 0 mm | - | - | - |
| 1777194645 | 8.33° C | 40% | 1015 hPa | 0 mm | - | - | - |
| 1777192840 | 8.33° C | 40% | 1015 hPa | 0 mm | - | - | - |
| 1777191043 | 8.89° C | 38% | 1014 hPa | 0 mm | - | - | - |
| 1777188636 | 8.33° C | 39% | 1014 hPa | 0 mm | - | - | - |
| 1777188020 | 8.33° C | 40% | 1014 hPa | 0 mm | - | - | - |
| 1777185637 | 7.78° C | 41% | 1014 hPa | 0 mm | - | - | - |
| 1777183816 | 7.22° C | 43% | 1013 hPa | 0 mm | - | - | - |
* Rain latest hour (hover to see other rain measurements)
** Current wind speed in m/s (hover to see current wind gust speed)